Time;durP1;ratioP1;P1;durP2;ratioP2;P2;SDS_P1;SDS_P2;PMS_P1;PMS_P2;Temp;Humidity;BMP_temperature;BMP_pressure;BME280_temperature;BME280_humidity;BME280_pressure;Samples;Min_cycle;Max_cycle;Signal;HPM_P1;HPM_P2
2022/01/29 00:01:32;;;;;;;20.35;4.40;;;19.90;50.70;;;;;;4414352;32;20081;-63
2022/01/29 00:03:58;;;;;;;20.40;3.95;;;19.90;50.70;;;;;;4413839;32;20446;-63
2022/01/29 00:06:24;;;;;;;23.20;4.25;;;19.90;50.80;;;;;;4414307;32;20082;-63
2022/01/29 00:08:52;;;;;;;17.88;4.07;;;19.90;50.80;;;;;;4413424;32;20079;-63
2022/01/29 00:11:18;;;;;;;17.23;3.67;;;19.80;50.80;;;;;;4413964;32;20430;-63
2022/01/29 00:13:44;;;;;;;16.02;3.53;;;19.80;51.70;;;;;;4413453;32;20075;-63
2022/01/29 00:16:10;;;;;;;14.88;3.50;;;19.80;50.80;;;;;;4413729;32;20130;-63
2022/01/29 00:18:36;;;;;;;14.25;3.55;;;19.80;50.80;;;;;;4413880;32;20074;-63
2022/01/29 00:21:03;;;;;;;12.32;3.63;;;19.80;50.80;;;;;;4413957;32;20083;-63
2022/01/29 00:23:29;;;;;;;16.45;3.63;;;19.70;50.80;;;;;;4413755;32;20091;-63
2022/01/29 00:25:55;;;;;;;15.73;3.78;;;19.70;50.80;;;;;;4413200;32;20085;-63
2022/01/29 00:28:21;;;;;;;13.70;3.25;;;19.70;50.80;;;;;;4413536;32;20653;-63
2022/01/29 00:30:47;;;;;;;13.50;3.25;;;19.70;50.80;;;;;;4413484;32;20516;-63
2022/01/29 00:33:14;;;;;;;15.48;3.45;;;19.70;50.80;;;;;;4414008;32;20216;-62
2022/01/29 00:35:40;;;;;;;13.90;3.35;;;19.70;50.80;;;;;;4413983;32;20129;-63
2022/01/29 00:38:06;;;;;;;11.68;3.40;;;19.60;50.70;;;;;;4413433;32;20086;-63
2022/01/29 00:40:33;;;;;;;12.77;3.28;;;19.60;50.80;;;;;;4413460;32;20229;-63
2022/01/29 00:42:59;;;;;;;13.35;3.42;;;19.60;50.70;;;;;;4413033;32;20182;-63
2022/01/29 00:45:26;;;;;;;12.18;3.38;;;19.60;50.70;;;;;;4413697;32;20129;-62
2022/01/29 00:47:52;;;;;;;15.13;3.40;;;19.60;50.70;;;;;;4413594;32;20177;-63
2022/01/29 00:50:18;;;;;;;12.13;3.20;;;19.60;50.80;;;;;;4413876;32;20118;-63
2022/01/29 00:52:44;;;;;;;11.70;2.78;;;19.50;50.80;;;;;;4413315;32;20074;-63
2022/01/29 00:55:11;;;;;;;10.52;2.95;;;19.50;50.80;;;;;;4413555;32;20490;-63
2022/01/29 00:57:39;;;;;;;10.88;3.05;;;19.50;50.80;;;;;;4413618;32;20074;-63
2022/01/29 01:00:12;;;;;;;10.27;3.20;;;19.50;50.80;;;;;;4413338;32;20316;-63
2022/01/29 01:02:38;;;;;;;8.80;2.63;;;19.50;50.80;;;;;;4413424;32;20505;-63
2022/01/29 01:05:04;;;;;;;11.75;2.70;;;19.50;50.80;;;;;;4399716;32;20220;-63
2022/01/29 01:07:30;;;;;;;10.93;3.10;;;19.50;50.80;;;;;;4412288;32;20490;-63
2022/01/29 01:10:01;;;;;;;10.20;2.70;;;19.40;50.70;;;;;;4413380;32;20087;-63
2022/01/29 01:12:27;;;;;;;10.63;2.50;;;19.50;50.80;;;;;;4413386;32;20079;-63
2022/01/29 01:14:53;;;;;;;7.72;2.10;;;19.50;50.80;;;;;;4413185;32;20098;-63
2022/01/29 01:17:18;;;;;;;12.20;2.80;;;19.40;50.70;;;;;;4413636;32;20091;-63
2022/01/29 01:19:45;;;;;;;10.05;2.60;;;19.40;50.70;;;;;;4399470;32;20420;-63
2022/01/29 01:22:14;;;;;;;9.93;2.53;;;19.40;50.70;;;;;;4413362;32;20470;-63
2022/01/29 01:24:41;;;;;;;7.40;2.70;;;19.40;51.70;;;;;;4412990;32;20098;-63
2022/01/29 01:27:06;;;;;;;6.88;2.35;;;19.40;50.80;;;;;;4413131;32;20600;-63
2022/01/29 01:29:32;;;;;;;9.38;2.35;;;19.40;50.70;;;;;;4399636;32;20217;-63
2022/01/29 01:31:58;;;;;;;6.68;2.35;;;19.40;50.70;;;;;;4412861;32;20248;-63
2022/01/29 01:34:27;;;;;;;8.95;2.20;;;19.30;50.70;;;;;;4412996;32;20087;-63
2022/01/29 01:37:01;;;;;;;10.52;2.50;;;19.30;50.70;;;;;;4414271;32;20201;-63
2022/01/29 01:39:31;;;;;;;10.05;2.22;;;19.30;50.70;;;;;;4416253;32;20083;-63
2022/01/29 01:42:03;;;;;;;6.68;2.30;;;19.30;50.70;;;;;;4416013;32;20090;-63
2022/01/29 01:44:43;;;;;;;7.70;2.17;;;19.30;50.70;;;;;;4415766;32;20109;-63
2022/01/29 01:47:10;;;;;;;10.38;2.63;;;19.30;50.80;;;;;;4415913;32;20154;-63
2022/01/29 01:49:36;;;;;;;8.75;2.22;;;19.30;50.80;;;;;;4402318;32;20141;-63
2022/01/29 01:52:03;;;;;;;9.65;2.33;;;19.30;50.80;;;;;;4415743;32;20213;-63
2022/01/29 01:54:29;;;;;;;7.72;2.53;;;19.30;50.80;;;;;;4414572;32;20123;-63
2022/01/29 01:56:55;;;;;;;6.75;2.17;;;19.20;50.70;;;;;;4415696;32;20079;-63
2022/01/29 01:59:20;;;;;;;7.38;2.30;;;19.20;50.70;;;;;;4415948;32;20097;-63
2022/01/29 02:01:47;;;;;;;5.43;2.10;;;19.20;50.70;;;;;;4415935;32;20497;-63
2022/01/29 02:04:13;;;;;;;6.43;2.00;;;19.20;50.70;;;;;;4415454;32;20516;-63
2022/01/29 02:06:39;;;;;;;4.47;1.83;;;19.20;50.70;;;;;;4415783;32;20208;-63
2022/01/29 02:09:05;;;;;;;8.65;2.10;;;19.20;50.70;;;;;;4422486;32;20074;-63
2022/01/29 02:11:30;;;;;;;5.40;1.70;;;19.20;50.70;;;;;;4415634;32;20216;-63
2022/01/29 02:13:57;;;;;;;8.05;2.17;;;19.20;50.70;;;;;;4415351;32;20091;-63
2022/01/29 02:16:23;;;;;;;6.75;1.92;;;19.20;50.80;;;;;;4415249;32;20075;-63
2022/01/29 02:18:49;;;;;;;5.88;2.30;;;19.20;50.80;;;;;;4415258;32;20070;-63
2022/01/29 02:21:16;;;;;;;5.82;1.92;;;19.10;50.80;;;;;;4415315;32;20182;-63
2022/01/29 02:23:42;;;;;;;7.00;1.60;;;19.10;50.70;;;;;;4414298;32;20075;-63
2022/01/29 02:26:08;;;;;;;6.82;2.03;;;19.10;50.80;;;;;;4429574;32;20136;-63
2022/01/29 02:28:34;;;;;;;8.00;2.22;;;19.10;50.80;;;;;;4429694;32;20441;-63
2022/01/29 02:31:02;;;;;;;5.90;2.00;;;19.10;50.80;;;;;;4428957;32;20110;-63
2022/01/29 02:33:31;;;;;;;7.72;2.05;;;19.10;50.80;;;;;;4415316;32;20138;-63
2022/01/29 02:35:58;;;;;;;5.07;1.73;;;19.10;50.80;;;;;;4429203;32;20165;-63
2022/01/29 02:38:26;;;;;;;4.40;1.85;;;19.10;50.80;;;;;;4429081;32;20237;-63
2022/01/29 02:40:58;;;;;;;7.95;1.90;;;19.10;50.80;;;;;;4429048;32;20489;-63
2022/01/29 02:43:35;;;;;;;6.45;1.90;;;19.00;50.80;;;;;;4428829;32;20083;-63
2022/01/29 02:46:29;;;;;;;6.85;2.00;;;19.10;50.80;;;;;;4428916;32;20070;-63
2022/01/29 02:48:52;;;;;;;6.20;1.95;;;19.00;50.80;;;;;;4428575;32;20070;-63
2022/01/29 02:51:19;;;;;;;4.70;1.90;;;19.00;50.80;;;;;;4430432;32;20220;-63
2022/01/29 02:53:48;;;;;;;5.47;2.10;;;19.00;50.80;;;;;;4430323;32;20568;-63
2022/01/29 02:56:14;;;;;;;6.18;1.67;;;19.00;50.80;;;;;;4429020;32;20149;-63
2022/01/29 02:58:40;;;;;;;5.22;1.77;;;19.00;50.80;;;;;;4428799;32;20091;-63
2022/01/29 03:01:07;;;;;;;6.05;2.00;;;19.00;50.80;;;;;;4428625;32;20075;-63
2022/01/29 03:03:34;;;;;;;4.38;1.55;;;19.00;50.80;;;;;;4428768;32;20463;-63
2022/01/29 03:06:03;;;;;;;4.68;1.67;;;19.00;50.80;;;;;;4428722;32;20525;-63
2022/01/29 03:08:29;;;;;;;6.07;1.88;;;18.90;50.80;;;;;;4428442;32;20134;-63
2022/01/29 03:10:55;;;;;;;4.65;1.65;;;18.90;50.80;;;;;;4428671;32;20389;-63
2022/01/29 03:13:21;;;;;;;4.93;1.90;;;18.90;50.80;;;;;;4428339;32;20505;-63
2022/01/29 03:15:48;;;;;;;6.15;2.00;;;18.90;50.80;;;;;;4429120;32;20132;-63
2022/01/29 03:18:13;;;;;;;4.88;1.60;;;18.90;50.80;;;;;;4428826;32;20192;-63
2022/01/29 03:20:39;;;;;;;5.85;1.80;;;18.90;50.80;;;;;;4428994;32;20130;-63
2022/01/29 03:23:05;;;;;;;6.70;1.85;;;18.90;50.90;;;;;;4428739;32;20157;-63
2022/01/29 03:25:31;;;;;;;7.90;2.08;;;18.90;50.80;;;;;;4429018;32;20188;-63
2022/01/29 03:27:56;;;;;;;5.18;1.90;;;18.90;50.80;;;;;;4428160;32;20090;-63
2022/01/29 03:30:22;;;;;;;6.80;1.85;;;18.80;50.80;;;;;;4429569;32;20497;-63
2022/01/29 03:32:48;;;;;;;4.95;1.98;;;18.90;50.90;;;;;;4416302;32;20081;-63
2022/01/29 03:35:16;;;;;;;5.97;2.08;;;18.90;50.90;;;;;;4429485;32;20409;-63
2022/01/29 03:37:41;;;;;;;6.97;2.33;;;18.80;50.80;;;;;;4429762;32;20668;-63
2022/01/29 03:40:08;;;;;;;4.45;1.77;;;18.90;50.90;;;;;;4429191;32;20082;-63
2022/01/29 03:42:43;;;;;;;6.88;2.10;;;18.80;50.80;;;;;;4428885;32;20094;-63
2022/01/29 03:45:10;;;;;;;3.92;1.70;;;18.90;50.80;;;;;;4427885;32;20066;-63
2022/01/29 03:47:36;;;;;;;7.75;2.25;;;18.80;50.80;;;;;;4422772;32;20075;-63
2022/01/29 03:50:02;;;;;;;4.35;1.70;;;18.80;50.80;;;;;;4413619;32;20498;-63
2022/01/29 03:52:29;;;;;;;6.53;2.03;;;18.80;50.80;;;;;;4413630;32;20449;-63
2022/01/29 03:54:54;;;;;;;7.40;2.13;;;18.80;50.80;;;;;;4413820;32;20093;-63
2022/01/29 03:57:21;;;;;;;7.18;2.08;;;18.80;50.80;;;;;;4413580;32;20087;-63
2022/01/29 03:59:48;;;;;;;7.28;2.08;;;18.80;50.80;;;;;;4413220;32;20083;-63
2022/01/29 04:02:14;;;;;;;6.05;2.00;;;18.80;50.80;;;;;;4413235;32;20157;-63
2022/01/29 04:04:40;;;;;;;7.50;2.17;;;18.80;50.70;;;;;;4413688;32;20098;-63
2022/01/29 04:07:11;;;;;;;5.55;1.90;;;18.80;50.70;;;;;;4413747;32;20071;-63
2022/01/29 04:09:37;;;;;;;6.38;2.20;;;18.80;50.80;;;;;;4413441;32;20417;-63
2022/01/29 04:12:03;;;;;;;5.65;1.90;;;18.80;50.80;;;;;;4413670;32;20312;-63
2022/01/29 04:14:37;;;;;;;4.63;1.70;;;18.70;50.70;;;;;;4413488;32;20188;-63
2022/01/29 04:17:04;;;;;;;7.68;1.83;;;18.70;50.70;;;;;;4413620;32;20117;-63
2022/01/29 04:19:31;;;;;;;5.22;2.20;;;18.70;50.70;;;;;;4413410;32;20067;-63
2022/01/29 04:21:57;;;;;;;5.70;1.92;;;18.70;50.80;;;;;;4413554;32;20075;-63
2022/01/29 04:24:23;;;;;;;8.73;2.38;;;18.70;50.70;;;;;;4413220;32;20059;-63
2022/01/29 04:26:48;;;;;;;6.38;2.20;;;18.70;50.70;;;;;;4413572;32;20055;-63
2022/01/29 04:29:14;;;;;;;6.28;2.33;;;18.70;50.70;;;;;;4399509;32;20172;-63
2022/01/29 04:34:21;;;;;;;6.78;2.33;;;18.70;50.70;;;;;;4413196;32;20156;-63
2022/01/29 04:36:47;;;;;;;6.40;2.45;;;18.70;50.80;;;;;;4413421;32;20113;-63
2022/01/29 04:39:14;;;;;;;5.13;2.28;;;18.70;50.70;;;;;;4413717;32;20124;-63
2022/01/29 04:41:40;;;;;;;5.72;2.00;;;18.70;50.80;;;;;;4411970;32;20118;-63
2022/01/29 04:44:06;;;;;;;7.07;2.33;;;18.60;50.70;;;;;;4413317;32;20067;-63
2022/01/29 04:46:32;;;;;;;6.55;2.08;;;18.60;50.70;;;;;;4412999;32;20171;-63
2022/01/29 04:48:58;;;;;;;4.78;1.80;;;18.60;50.70;;;;;;4413411;32;20167;-63
2022/01/29 04:51:23;;;;;;;7.40;2.40;;;18.60;50.70;;;;;;4413565;32;20153;-63
2022/01/29 04:53:49;;;;;;;7.45;2.53;;;18.60;50.70;;;;;;4411858;32;20125;-63
2022/01/29 04:56:15;;;;;;;3.63;1.48;;;18.60;50.70;;;;;;4413328;32;20502;-63
2022/01/29 04:58:42;;;;;;;5.63;2.05;;;18.60;50.70;;;;;;4413431;32;20062;-62
2022/01/29 05:01:08;;;;;;;6.95;1.83;;;18.60;50.80;;;;;;4413063;32;20086;-63
2022/01/29 05:03:34;;;;;;;4.57;1.63;;;18.60;50.80;;;;;;4412690;32;20083;-63
2022/01/29 05:06:01;;;;;;;7.78;2.50;;;18.60;50.80;;;;;;4413035;32;20093;-63
2022/01/29 05:08:27;;;;;;;5.85;2.20;;;18.60;50.80;;;;;;4412736;32;20126;-63
2022/01/29 05:10:54;;;;;;;8.38;2.58;;;18.60;50.80;;;;;;4413079;32;20156;-63
2022/01/29 05:13:25;;;;;;;5.78;1.92;;;18.60;50.80;;;;;;4414617;32;20136;-63
2022/01/29 05:29:36;;;;;;;4.95;2.08;;;18.50;50.90;;;;;;4397833;32;20115;-62
2022/01/29 05:32:07;;;;;;;4.38;1.77;;;18.50;50.90;;;;;;4402413;32;20177;-63
2022/01/29 05:34:34;;;;;;;6.18;2.13;;;18.50;50.90;;;;;;4415506;32;20140;-63
2022/01/29 05:37:02;;;;;;;3.95;1.83;;;18.50;51.00;;;;;;4415922;32;20431;-63
2022/01/29 05:39:28;;;;;;;6.10;2.10;;;18.50;50.90;;;;;;4415462;32;20067;-63
2022/01/29 05:41:54;;;;;;;6.95;1.90;;;18.50;50.90;;;;;;4402159;32;20074;-63
2022/01/29 05:44:20;;;;;;;4.85;1.88;;;18.50;50.90;;;;;;4414142;32;20157;-63
2022/01/29 05:46:46;;;;;;;5.93;1.77;;;18.50;50.90;;;;;;4415435;32;20083;-63
2022/01/29 05:49:32;;;;;;;7.25;1.95;;;18.40;50.90;;;;;;4403717;32;20075;-63
2022/01/29 05:51:58;;;;;;;7.97;2.75;;;18.40;50.90;;;;;;4415709;32;20525;-63
2022/01/29 05:54:23;;;;;;;6.07;2.33;;;18.40;50.90;;;;;;4415496;32;20476;-63
2022/01/29 05:56:49;;;;;;;4.35;1.70;;;18.40;51.90;;;;;;4415968;32;20130;-63
2022/01/29 05:59:15;;;;;;;4.22;1.83;;;18.40;51.00;;;;;;4415492;32;20077;-63
2022/01/29 06:01:41;;;;;;;5.10;2.08;;;18.40;51.00;;;;;;4415297;32;20169;-63
2022/01/29 06:04:07;;;;;;;5.35;1.90;;;18.40;51.00;;;;;;4415752;32;20178;-63
2022/01/29 06:06:34;;;;;;;6.30;1.90;;;18.40;50.90;;;;;;4401990;32;20083;-63
2022/01/29 06:09:04;;;;;;;6.90;2.13;;;18.40;51.00;;;;;;4415490;32;20071;-63
2022/01/29 06:11:34;;;;;;;4.82;1.73;;;18.40;51.00;;;;;;4415013;32;20148;-63
2022/01/29 06:14:00;;;;;;;5.55;2.03;;;18.40;51.00;;;;;;4415936;32;20240;-63
2022/01/29 06:16:26;;;;;;;5.68;1.90;;;18.40;51.00;;;;;;4415679;32;20425;-63
2022/01/29 06:18:52;;;;;;;4.47;1.95;;;18.40;51.00;;;;;;4415374;32;20078;-63
2022/01/29 06:21:19;;;;;;;4.45;2.03;;;18.40;51.00;;;;;;4415575;32;20099;-63
2022/01/29 06:23:44;;;;;;;5.30;2.10;;;18.30;51.00;;;;;;4414518;32;20167;-63
2022/01/29 06:26:12;;;;;;;4.43;1.63;;;18.30;51.00;;;;;;4415477;32;20102;-63
2022/01/29 06:28:39;;;;;;;5.43;2.10;;;18.30;51.00;;;;;;4415256;32;20113;-63
2022/01/29 06:31:06;;;;;;;5.07;1.83;;;18.30;51.00;;;;;;4415407;32;20209;-63
2022/01/29 06:33:33;;;;;;;3.47;1.83;;;18.30;51.00;;;;;;4415223;32;20514;-63
2022/01/29 06:35:59;;;;;;;6.00;1.90;;;18.30;51.10;;;;;;4401861;32;20094;-63
2022/01/29 06:38:25;;;;;;;4.53;1.65;;;18.30;51.10;;;;;;4415344;32;20240;-63
2022/01/29 06:40:51;;;;;;;3.47;1.70;;;18.30;51.10;;;;;;4415287;32;20067;-63
2022/01/29 06:43:17;;;;;;;3.63;1.73;;;18.30;51.10;;;;;;4415227;32;20473;-63
2022/01/29 06:45:44;;;;;;;4.97;2.15;;;18.30;51.10;;;;;;4401114;32;20137;-63
2022/01/29 06:48:11;;;;;;;5.70;1.88;;;18.30;51.20;;;;;;4415234;32;20166;-63
2022/01/29 06:50:38;;;;;;;6.82;1.67;;;18.30;51.20;;;;;;4414905;32;20094;-63
2022/01/29 06:53:04;;;;;;;5.32;2.10;;;18.30;51.20;;;;;;4415148;32;20169;-63
2022/01/29 06:55:30;;;;;;;5.07;1.80;;;18.30;51.30;;;;;;4415400;32;20141;-63
2022/01/29 06:57:57;;;;;;;4.43;1.80;;;18.30;51.20;;;;;;4414834;32;20083;-63
2022/01/29 07:00:23;;;;;;;4.50;1.67;;;18.30;51.30;;;;;;4415302;32;20078;-63
2022/01/29 07:02:49;;;;;;;4.43;1.80;;;18.20;51.20;;;;;;4414717;32;20126;-63
2022/01/29 07:05:15;;;;;;;5.35;1.75;;;18.20;51.20;;;;;;4415005;32;20075;-63
2022/01/29 07:07:42;;;;;;;5.35;1.77;;;18.20;51.20;;;;;;4414645;32;20091;-63
2022/01/29 07:10:09;;;;;;;4.50;1.80;;;18.20;51.20;;;;;;4414605;32;20509;-63
2022/01/29 07:12:39;;;;;;;3.83;1.60;;;18.20;51.20;;;;;;4414617;32;20165;-63
2022/01/29 07:15:07;;;;;;;5.72;2.20;;;18.20;51.20;;;;;;4415220;32;20099;-63
2022/01/29 07:17:34;;;;;;;4.57;1.75;;;18.20;51.20;;;;;;4414960;32;20137;-62
2022/01/29 07:20:00;;;;;;;3.72;1.45;;;18.20;51.20;;;;;;4414296;32;20153;-62
2022/01/29 07:22:26;;;;;;;4.68;1.90;;;18.20;51.30;;;;;;4415013;32;20083;-63
2022/01/29 07:24:52;;;;;;;3.60;1.55;;;18.20;51.30;;;;;;4414382;32;20089;-63
2022/01/29 07:27:18;;;;;;;4.22;1.73;;;18.20;51.30;;;;;;4414409;32;20212;-63
2022/01/29 07:29:44;;;;;;;5.80;1.90;;;18.20;51.30;;;;;;4414325;32;20059;-63
2022/01/29 07:32:10;;;;;;;4.40;1.60;;;18.20;51.30;;;;;;4414495;32;20536;-63
2022/01/29 07:34:37;;;;;;;6.18;1.75;;;18.20;51.30;;;;;;4414464;32;20528;-62
2022/01/29 07:37:03;;;;;;;5.28;2.08;;;18.20;51.30;;;;;;4414410;32;20093;-63
2022/01/29 07:39:29;;;;;;;8.40;2.15;;;18.10;51.30;;;;;;4414127;32;20213;-63
2022/01/29 07:41:56;;;;;;;8.45;2.42;;;18.10;51.30;;;;;;4413903;32;20137;-63
2022/01/29 07:44:22;;;;;;;6.28;2.63;;;18.10;51.20;;;;;;4413987;32;20097;-63
2022/01/29 07:46:49;;;;;;;8.98;3.05;;;18.10;51.20;;;;;;4414436;32;20133;-63
2022/01/29 07:49:15;;;;;;;7.85;3.17;;;18.10;51.30;;;;;;4413990;32;20126;-63
2022/01/29 07:51:41;;;;;;;5.95;2.47;;;18.10;51.40;;;;;;4414350;32;20371;-62
2022/01/29 07:54:07;;;;;;;6.68;2.60;;;18.10;51.60;;;;;;4414361;32;20090;-63
2022/01/29 07:56:33;;;;;;;7.55;2.75;;;18.10;51.70;;;;;;4414180;32;20379;-63
2022/01/29 07:58:59;;;;;;;8.77;2.92;;;18.10;51.80;;;;;;4412855;32;20653;-63
2022/01/29 08:01:25;;;;;;;5.90;2.70;;;18.10;51.90;;;;;;4413765;32;20071;-63
2022/01/29 08:03:52;;;;;;;6.07;2.53;;;18.10;51.90;;;;;;4413507;32;20093;-63
2022/01/29 08:06:22;;;;;;;6.70;2.40;;;18.10;52.00;;;;;;4413848;32;20075;-62
2022/01/29 08:08:52;;;;;;;7.80;2.78;;;18.10;52.00;;;;;;4413586;32;20097;-62
2022/01/29 08:11:18;;;;;;;9.40;2.13;;;18.10;51.90;;;;;;4413690;32;20090;-62
2022/01/29 08:13:46;;;;;;;8.38;2.67;;;18.10;51.80;;;;;;4413970;32;20075;-63
2022/01/29 08:16:15;;;;;;;6.20;2.28;;;18.10;51.80;;;;;;4415122;32;20091;-63
2022/01/29 08:18:43;;;;;;;6.82;2.05;;;18.10;51.80;;;;;;4413104;32;20494;-63
2022/01/29 08:21:13;;;;;;;7.47;2.00;;;18.10;51.90;;;;;;4411596;32;20089;-63
2022/01/29 08:23:40;;;;;;;5.72;2.13;;;18.10;51.90;;;;;;4413378;32;20098;-63
2022/01/29 08:26:06;;;;;;;5.40;1.85;;;18.10;51.80;;;;;;4413723;32;20094;-63
2022/01/29 08:28:32;;;;;;;6.78;2.28;;;18.00;51.80;;;;;;4414022;32;20101;-63
2022/01/29 08:30:58;;;;;;;6.43;2.22;;;18.00;51.80;;;;;;4399649;32;20216;-63
2022/01/29 08:33:24;;;;;;;5.63;2.35;;;18.00;51.90;;;;;;4413717;32;20079;-62
2022/01/29 08:35:50;;;;;;;4.38;1.58;;;18.00;51.90;;;;;;4413427;32;20710;-63
2022/01/29 08:38:16;;;;;;;8.23;2.47;;;18.00;51.90;;;;;;4413723;32;20078;-63
2022/01/29 08:40:41;;;;;;;6.32;1.83;;;18.00;51.90;;;;;;4413438;32;20066;-63
2022/01/29 08:43:08;;;;;;;4.00;1.75;;;18.00;51.90;;;;;;4413541;32;20055;-63
2022/01/29 08:45:34;;;;;;;4.43;1.90;;;18.00;51.90;;;;;;4413603;32;20137;-62
2022/01/29 08:48:00;;;;;;;5.85;1.90;;;17.90;51.90;;;;;;4413029;32;20260;-62
2022/01/29 08:50:26;;;;;;;5.63;1.92;;;17.90;51.90;;;;;;4399786;32;20071;-62
2022/01/29 08:52:52;;;;;;;4.10;1.92;;;18.00;51.90;;;;;;4413130;32;20082;-63
2022/01/29 08:55:18;;;;;;;7.20;1.73;;;17.90;51.90;;;;;;4419759;32;20192;-62
2022/01/29 08:57:45;;;;;;;6.05;1.60;;;17.90;51.90;;;;;;4428925;32;20473;-62
2022/01/29 09:00:12;;;;;;;5.97;1.70;;;17.90;52.00;;;;;;4428414;32;20606;-62
2022/01/29 09:02:38;;;;;;;6.38;2.10;;;17.90;52.10;;;;;;4429144;32;20569;-62
2022/01/29 09:05:05;;;;;;;5.72;2.00;;;17.90;52.20;;;;;;4429054;32;20206;-62
2022/01/29 09:07:31;;;;;;;3.55;1.50;;;17.90;52.20;;;;;;4428758;32;20552;-62
2022/01/29 09:09:57;;;;;;;5.10;1.83;;;18.00;52.20;;;;;;4428415;32;20532;-62
2022/01/29 09:12:23;;;;;;;4.60;1.48;;;18.00;52.20;;;;;;4428805;32;20070;-62
2022/01/29 09:14:49;;;;;;;5.65;1.73;;;17.90;52.10;;;;;;4428781;32;20192;-62
2022/01/29 09:17:15;;;;;;;4.18;1.50;;;18.00;52.20;;;;;;4428238;32;20517;-62
2022/01/29 09:19:41;;;;;;;5.95;2.08;;;18.00;52.20;;;;;;4428737;32;20078;-62
2022/01/29 09:22:07;;;;;;;4.63;1.50;;;18.00;52.20;;;;;;4428450;32;20083;-62
2022/01/29 09:24:33;;;;;;;3.85;1.70;;;18.00;52.10;;;;;;4428649;32;20160;-62
2022/01/29 09:26:59;;;;;;;3.53;1.30;;;18.00;52.00;;;;;;4428405;32;20094;-62
2022/01/29 09:29:25;;;;;;;4.70;1.42;;;18.10;52.00;;;;;;4428866;32;20094;-62
2022/01/29 09:31:51;;;;;;;2.78;1.30;;;18.10;51.90;;;;;;4428716;32;20109;-62
2022/01/29 09:34:18;;;;;;;5.25;1.58;;;18.20;51.80;;;;;;4428344;32;20409;-62
2022/01/29 09:36:43;;;;;;;4.50;1.55;;;18.30;51.70;;;;;;4428668;32;20070;-62
2022/01/29 09:39:10;;;;;;;5.18;1.75;;;18.40;51.60;;;;;;4428538;32;20180;-62
2022/01/29 09:41:42;;;;;;;5.22;1.20;;;18.50;51.40;;;;;;4428608;32;20083;-62
2022/01/29 09:44:08;;;;;;;4.25;1.20;;;18.60;51.20;;;;;;4416969;32;20168;-62
2022/01/29 09:46:34;;;;;;;4.35;1.23;;;18.70;50.90;;;;;;4394238;32;39875;-63
2022/01/29 09:48:59;;;;;;;4.30;1.30;;;18.80;50.70;;;;;;4412065;32;20063;-63
2022/01/29 09:51:27;;;;;;;3.85;1.10;;;18.90;50.50;;;;;;4412645;32;20106;-62
2022/01/29 09:53:52;;;;;;;2.70;1.08;;;19.10;50.30;;;;;;4412894;32;20078;-62
2022/01/29 09:56:18;;;;;;;4.80;1.38;;;19.20;50.00;;;;;;4412287;32;20426;-62
2022/01/29 09:58:44;;;;;;;3.00;1.00;;;19.30;49.80;;;;;;4413801;32;20078;-62
2022/01/29 10:01:10;;;;;;;5.15;1.38;;;19.40;49.60;;;;;;4415184;32;20538;-62
2022/01/29 10:03:36;;;;;;;3.88;1.10;;;19.50;49.40;;;;;;4415297;32;20071;-62
2022/01/29 10:06:04;;;;;;;4.35;1.10;;;19.60;49.40;;;;;;4414713;32;20404;-62
2022/01/29 10:08:41;;;;;;;2.47;0.98;;;19.70;49.20;;;;;;4415491;32;20099;-62
2022/01/29 10:11:20;;;;;;;2.65;1.00;;;19.90;49.10;;;;;;4414641;32;20083;-62
2022/01/29 10:13:46;;;;;;;4.05;1.23;;;20.00;48.80;;;;;;4401373;32;20086;-63
2022/01/29 10:16:18;;;;;;;4.05;0.93;;;20.10;48.70;;;;;;4414474;32;20220;-63
2022/01/29 10:19:05;;;;;;;3.00;1.00;;;20.20;48.50;;;;;;4415244;32;20078;-62
2022/01/29 10:21:44;;;;;;;3.05;1.10;;;20.30;48.40;;;;;;4406675;32;20656;-62
2022/01/29 10:24:13;;;;;;;5.70;1.33;;;20.40;48.10;;;;;;4414984;32;20157;-62
2022/01/29 10:26:41;;;;;;;4.38;1.27;;;20.50;47.80;;;;;;4413976;32;20117;-62
2022/01/29 10:29:09;;;;;;;6.00;1.35;;;20.60;47.70;;;;;;4413854;32;20082;-62
2022/01/29 10:31:40;;;;;;;2.63;1.00;;;20.60;47.50;;;;;;4422508;32;20104;-62
2022/01/29 10:34:25;;;;;;;5.22;1.08;;;20.80;47.40;;;;;;4426280;32;20146;-62
2022/01/29 10:37:23;;;;;;;1.75;0.80;;;20.80;47.20;;;;;;4429585;32;20118;-62
2022/01/29 10:39:53;;;;;;;3.38;1.15;;;20.90;47.00;;;;;;4427286;32;20079;-62
2022/01/29 10:42:32;;;;;;;3.00;1.13;;;21.00;46.70;;;;;;4417131;32;20173;-62
2022/01/29 10:45:02;;;;;;;4.32;0.95;;;21.10;46.70;;;;;;4394728;32;20557;-62
2022/01/29 10:47:29;;;;;;;3.65;1.02;;;21.20;46.60;;;;;;4414923;32;20100;-62
2022/01/29 10:49:59;;;;;;;3.95;1.20;;;21.20;46.40;;;;;;4415021;32;20067;-62
2022/01/29 10:52:35;;;;;;;4.25;0.90;;;21.30;46.40;;;;;;4414944;32;20640;-62
2022/01/29 10:55:05;;;;;;;3.70;1.10;;;21.30;46.30;;;;;;4428165;32;20114;-62
2022/01/29 10:57:37;;;;;;;3.33;0.95;;;21.30;46.20;;;;;;4415576;32;20216;-62
2022/01/29 11:00:14;;;;;;;2.17;0.93;;;21.40;46.20;;;;;;4430497;32;20086;-62
2022/01/29 11:02:40;;;;;;;3.72;1.00;;;21.40;46.20;;;;;;4430152;32;20070;-62
2022/01/29 11:05:06;;;;;;;4.63;1.27;;;21.40;46.00;;;;;;4420772;32;20371;-62
2022/01/29 11:07:35;;;;;;;2.95;0.93;;;21.40;46.00;;;;;;4413936;32;20075;-62
2022/01/29 11:10:03;;;;;;;3.42;0.90;;;21.50;45.90;;;;;;4419753;32;20498;-62
2022/01/29 11:12:30;;;;;;;7.13;1.10;;;21.50;45.90;;;;;;4426866;32;20078;-62
2022/01/29 11:14:59;;;;;;;4.15;1.10;;;21.50;45.80;;;;;;4406798;32;25062;-62
2022/01/29 11:17:27;;;;;;;2.00;1.17;;;21.60;45.70;;;;;;4428625;32;20574;-62
2022/01/29 11:19:54;;;;;;;2.58;1.02;;;21.60;45.70;;;;;;4415564;32;20086;-62
2022/01/29 11:22:23;;;;;;;4.45;1.05;;;21.60;45.60;;;;;;4416925;32;20457;-62
2022/01/29 11:24:55;;;;;;;2.83;0.70;;;21.70;45.50;;;;;;4401156;32;20205;-62
2022/01/29 11:27:22;;;;;;;4.30;1.08;;;21.70;45.40;;;;;;4413244;32;20594;-62
2022/01/29 11:30:10;;;;;;;3.60;1.05;;;21.60;45.20;;;;;;4413722;32;20145;-62
2022/01/29 11:32:43;;;;;;;5.40;1.13;;;21.60;45.00;;;;;;4425897;32;20099;-62
2022/01/29 11:35:13;;;;;;;2.60;0.93;;;21.60;44.90;;;;;;4428996;32;20231;-63
2022/01/29 11:37:45;;;;;;;5.30;1.15;;;21.60;45.00;;;;;;4429628;32;20094;-62
2022/01/29 11:40:32;;;;;;;10.10;1.65;;;21.60;45.00;;;;;;4429740;32;20168;-62
2022/01/29 11:43:07;;;;;;;4.65;1.30;;;21.60;44.90;;;;;;4427932;32;20204;-63
2022/01/29 11:45:53;;;;;;;4.10;1.33;;;21.60;44.90;;;;;;4429375;32;20113;-62
2022/01/29 11:49:00;;;;;;;9.57;1.38;;;21.50;45.00;;;;;;4429427;32;20070;-63
2022/01/29 11:51:41;;;;;;;4.63;1.30;;;21.50;45.20;;;;;;4426795;32;20145;-63
2022/01/29 11:54:08;;;;;;;4.20;1.50;;;21.40;45.60;;;;;;4429137;32;20168;-62
2022/01/29 11:56:35;;;;;;;4.63;1.42;;;21.30;45.90;;;;;;4428459;32;20600;-63
2022/01/29 11:59:19;;;;;;;6.03;1.38;;;21.20;46.20;;;;;;4429075;32;20146;-62
2022/01/29 12:01:46;;;;;;;5.05;1.20;;;21.10;46.50;;;;;;4429364;32;20225;-62
2022/01/29 12:04:12;;;;;;;4.57;1.50;;;21.00;46.80;;;;;;4428461;32;20419;-62
2022/01/29 12:09:52;;;;;;;7.53;1.50;;;21.00;47.30;;;;;;4429160;32;20391;-63
2022/01/29 12:12:24;;;;;;;5.13;1.40;;;21.00;47.50;;;;;;4431548;32;20078;-63
2022/01/29 12:14:53;;;;;;;3.58;1.23;;;21.00;47.60;;;;;;4427981;32;20128;-62
2022/01/29 12:17:41;;;;;;;6.88;1.40;;;21.00;47.70;;;;;;4429110;32;20074;-63
2022/01/29 12:20:08;;;;;;;4.70;1.63;;;21.10;47.70;;;;;;4427679;32;20106;-61
2022/01/29 12:22:35;;;;;;;6.70;1.50;;;21.10;47.70;;;;;;4427107;32;20404;-62
2022/01/29 12:25:06;;;;;;;5.15;1.45;;;21.20;47.80;;;;;;4428890;32;20208;-62
2022/01/29 12:27:57;;;;;;;6.72;1.40;;;21.30;47.80;;;;;;4428277;32;20184;-63
2022/01/29 12:30:26;;;;;;;6.82;1.30;;;21.40;47.80;;;;;;4428704;32;20517;-63
2022/01/29 12:33:04;;;;;;;6.03;1.45;;;21.40;47.60;;;;;;4427185;32;20089;-62
2022/01/29 12:35:39;;;;;;;7.90;1.40;;;21.50;47.50;;;;;;4428538;32;20225;-63
2022/01/29 12:38:29;;;;;;;10.18;1.70;;;21.60;47.30;;;;;;4422435;32;20079;-62
2022/01/29 12:41:03;;;;;;;6.07;1.40;;;21.70;47.20;;;;;;4413452;32;20097;-62
2022/01/29 12:43:35;;;;;;;7.18;1.58;;;21.80;47.10;;;;;;4412869;32;21577;-62
2022/01/29 12:46:12;;;;;;;6.93;1.40;;;21.80;46.90;;;;;;4412811;32;20107;-62
2022/01/29 12:48:38;;;;;;;7.55;1.60;;;21.90;46.80;;;;;;4419019;32;20758;-63
2022/01/29 12:51:06;;;;;;;5.28;1.58;;;21.90;46.40;;;;;;4422937;32;20107;-62
2022/01/29 12:53:32;;;;;;;8.15;1.75;;;21.90;46.30;;;;;;4417085;32;20078;-62
2022/01/29 12:56:10;;;;;;;7.60;1.90;;;21.80;46.20;;;;;;4420344;32;20162;-62
2022/01/29 12:58:40;;;;;;;7.97;1.77;;;21.80;46.30;;;;;;4412100;32;20094;-62
2022/01/29 13:01:11;;;;;;;7.07;1.75;;;21.70;46.30;;;;;;4412511;32;20395;-62
2022/01/29 13:03:38;;;;;;;5.78;1.67;;;21.60;46.40;;;;;;4412404;32;20079;-62
2022/01/29 13:06:08;;;;;;;7.03;1.30;;;21.60;46.50;;;;;;4426338;32;20086;-62
2022/01/29 13:08:35;;;;;;;6.47;1.27;;;21.50;46.70;;;;;;4428416;32;20086;-63
2022/01/29 13:11:01;;;;;;;5.22;1.42;;;21.40;46.80;;;;;;4428649;32;20110;-63